• Join FlightAware (Why Join?)
  • Login
  • US Flag 
04:37PM EDT


 

Airport Tracker/Info


-or-


 

Live Flight TrackerFlight Track Log ✈ SKW7377 ✈ 16-May-2013 ✈ KSLC - KBTM

Flight Track Log - Related Links

Times and Time Zones

All times are in EDT time to prevent confusion due to time zone crossing. See the SKW7377 flight status page for this flight to view local times or setup timezone preferences in your user account.

Time Position Orientation Groundspeed Altitude Reporting Facility
EDT Latitude Longitude Course Direction KTS MPH feet Rate Location/Type
01:28PM 40.7692 -111.9978 221° Southwest 191 220 5,000  Level Salt Lake Center
01:28PM 40.7517 -112.0178 221° Southwest 185 213 5,900 1,620 Climbing Salt Lake Center
01:29PM 40.7722 -112.0900 291° West 246 283 7,500 1,440 Climbing Salt Lake Center
01:30PM 40.7847 -112.1011 326° Northwest 253 291 7,800 2,220 Climbing Salt Lake Center
01:30PM 40.8267 -112.1594 314° West 268 308 9,800 2,220 Climbing Salt Lake Center
01:31PM 40.8378 -112.1703 324° Northwest 266 306 10,100 1,740 Climbing Salt Lake Center
01:32PM 40.9028 -112.1850 350° North 306 352 11,600 1,620 Climbing Salt Lake Center
01:32PM 40.9183 -112.1761 23° Northeast 309 356 11,800 1,200 Climbing Salt Lake Center
01:33PM 41.0072 -112.1294 22° Northeast 339 390 13,200 1,560 Climbing Salt Lake Center
01:34PM 41.1011 -112.0767 23° Northeast 358 412 15,100 1,740 Climbing Salt Lake Center
01:35PM 41.2019 -112.0828 357° North 361 415 16,800 1,740 Climbing Salt Lake Center
01:36PM 41.3250 -112.0989 354° North 368 423 18,700 1,620 Climbing Salt Lake Center
01:37PM 41.4286 -112.1131 354° North 372 428 20,200 1,200 Climbing Salt Lake Center
01:38PM 41.5314 -112.1364 350° North 376 433 21,300 1,020 Climbing Salt Lake Center
01:39PM 41.6317 -112.1767 343° North 378 435 22,400 1,020 Climbing Salt Lake Center
01:40PM 41.7342 -112.2164 344° North 384 442 23,400 960 Climbing Salt Lake Center
01:41PM 41.8403 -112.2372 352° North 382 440 24,400 960 Climbing Salt Lake Center
01:42PM 41.9528 -112.2481 356° North 401 461 25,400 720 Climbing Salt Lake Center
01:43PM 42.0889 -112.2642 355° North 410 472 26,000 240 Climbing Salt Lake Center
01:44PM 42.2053 -112.2767 355° North 418 481 26,000  Level Salt Lake Center
01:45PM 42.3228 -112.2903 355° North 423 487 26,000  Level Salt Lake Center
01:46PM 42.4400 -112.3036 355° North 423 487 26,000  Level Salt Lake Center
01:47PM 42.5578 -112.3178 355° North 425 489 26,000  Level Salt Lake Center
01:48PM 42.6761 -112.3308 355° North 426 490 26,000  Level Salt Lake Center
01:49PM 42.8039 -112.3464 355° North 428 493 26,000  Level Salt Lake Center
01:50PM 42.9361 -112.3622 355° North 426 490 26,000  Level Salt Lake Center
01:51PM 43.0511 -112.3761 355° North 432 497 26,000  Level Salt Lake Center
01:52PM 43.1842 -112.3914 355° North 432 497 26,000  Level Salt Lake Center
01:53PM 43.2978 -112.4042 355° North 429 494 26,000  Level Salt Lake Center
01:54PM 43.4325 -112.4211 355° North 433 498 26,000  Level Salt Lake Center
01:56PM 43.5481 -112.4347 355° North 435 501 26,000  Level Salt Lake Center
01:57PM 43.6625 -112.4478 355° North 433 498 26,000  Level Salt Lake Center
01:58PM 43.7972 -112.4639 355° North 433 498 26,000  Level Salt Lake Center
01:59PM 43.9150 -112.4797 354° North 439 505 26,000  Level Salt Lake Center
02:00PM 44.0486 -112.4961 355° North 435 501 26,000  Level Salt Lake Center
02:01PM 44.1650 -112.5100 355° North 436 502 26,000  Level Salt Lake Center
02:02PM 44.3006 -112.5272 355° North 436 502 26,000  Level Salt Lake Center
02:03PM 44.4175 -112.5414 355° North 437 503 26,000  Level Salt Lake Center
02:04PM 44.5511 -112.5594 354° North 436 502 26,000  Level Salt Lake Center
02:05PM 44.6675 -112.5739 355° North 436 502 26,000 -1,020 Level Salt Lake Center
02:06PM 44.7883 -112.5881 355° North 448 516 24,000 -1,920 Descending Salt Lake Center
02:07PM 44.9336 -112.6072 355° North 464 534 22,100 -1,500 Descending Salt Lake Center
02:08PM 45.0531 -112.6228 355° North 456 525 21,000 -2,160 Descending Salt Lake Center
02:09PM 45.1931 -112.6411 355° North 451 519 17,700 -3,000 Descending Salt Lake Center
02:10PM 45.3086 -112.6542 355° North 443 510 14,900 -2,280 Descending Salt Lake Center
02:11PM 45.4322 -112.6667 356° North 419 482 13,000 -960 Descending Salt Lake Center
02:12PM 45.5278 -112.6736 357° North 387 445 13,000 -120 Level Salt Lake Center
02:13PM 45.6067 -112.6714 North 336 387 12,800 -540 Descending Salt Lake Center
02:14PM 45.6833 -112.6739 359° North 287 330 12,000 -420 Descending Salt Lake Center
02:15PM 45.7789 -112.6844 356° North 313 360 12,000 -960 Level Salt Lake Center
02:16PM 45.8894 -112.6736 North 326 375 10,100 -1,320 Descending Salt Lake Center
02:17PM 45.9608 -112.6558 10° North 316 364 9,300 -780 Descending Salt Lake Center
02:19PM 45.9548 -112.4975 90° East  Level Estimated
02:26PM 45.9548 -112.4975 90° East  Level Estimated